sensor_id;sensor_type;location;lat;lon;timestamp;pressure;altitude;pressure_sealevel;temperature;humidity
20656;BME280;10487;53.320;8.672;2023-06-22T00:01:11;101746.97;;;16.51;48.75
20656;BME280;10487;53.320;8.672;2023-06-22T00:04:13;101752.63;;;16.48;48.86
20656;BME280;10487;53.320;8.672;2023-06-22T00:07:15;101754.72;;;16.45;48.88
20656;BME280;10487;53.320;8.672;2023-06-22T00:10:16;101761.34;;;16.41;48.83
20656;BME280;10487;53.320;8.672;2023-06-22T00:13:18;101758.03;;;16.37;49.00
20656;BME280;10487;53.320;8.672;2023-06-22T00:16:20;101758.28;;;16.34;48.92
20656;BME280;10487;53.320;8.672;2023-06-22T00:19:21;101758.41;;;16.33;48.87
20656;BME280;10487;53.320;8.672;2023-06-22T00:22:23;101756.97;;;16.28;48.88
20656;BME280;10487;53.320;8.672;2023-06-22T00:25:30;101771.66;;;16.24;49.04
20656;BME280;10487;53.320;8.672;2023-06-22T00:28:32;101758.56;;;16.20;49.07
20656;BME280;10487;53.320;8.672;2023-06-22T00:31:33;101760.63;;;16.16;49.28
20656;BME280;10487;53.320;8.672;2023-06-22T00:34:35;101760.91;;;16.13;49.37
20656;BME280;10487;53.320;8.672;2023-06-22T00:37:37;101766.53;;;16.10;49.29
20656;BME280;10487;53.320;8.672;2023-06-22T00:40:39;101767.75;;;16.06;49.35
20656;BME280;10487;53.320;8.672;2023-06-22T00:43:41;101772.50;;;16.03;49.37
20656;BME280;10487;53.320;8.672;2023-06-22T00:46:43;101760.25;;;15.99;49.44
20656;BME280;10487;53.320;8.672;2023-06-22T00:49:47;101764.09;;;15.96;49.54
20656;BME280;10487;53.320;8.672;2023-06-22T00:52:52;101753.56;;;15.93;49.61
20656;BME280;10487;53.320;8.672;2023-06-22T00:55:55;101755.53;;;15.91;49.57
20656;BME280;10487;53.320;8.672;2023-06-22T00:58:58;101753.16;;;15.87;49.62
20656;BME280;10487;53.320;8.672;2023-06-22T01:02:00;101748.16;;;15.82;49.74
20656;BME280;10487;53.320;8.672;2023-06-22T01:05:02;101756.38;;;15.81;49.80
20656;BME280;10487;53.320;8.672;2023-06-22T01:08:29;101745.84;;;15.78;49.80
20656;BME280;10487;53.320;8.672;2023-06-22T01:11:38;101746.81;;;15.77;49.83
20656;BME280;10487;53.320;8.672;2023-06-22T01:15:00;101753.19;;;15.76;49.90
20656;BME280;10487;53.320;8.672;2023-06-22T01:18:04;101750.59;;;15.74;49.94
20656;BME280;10487;53.320;8.672;2023-06-22T01:21:11;101747.09;;;15.74;49.93
20656;BME280;10487;53.320;8.672;2023-06-22T01:24:27;101748.91;;;15.73;50.12
20656;BME280;10487;53.320;8.672;2023-06-22T01:27:40;101747.19;;;15.72;50.07
20656;BME280;10487;53.320;8.672;2023-06-22T01:30:49;101744.41;;;15.74;50.11
20656;BME280;10487;53.320;8.672;2023-06-22T01:34:05;101749.78;;;15.74;50.14
20656;BME280;10487;53.320;8.672;2023-06-22T01:37:07;101747.19;;;15.72;50.13
20656;BME280;10487;53.320;8.672;2023-06-22T01:40:09;101748.06;;;15.73;49.98
20656;BME280;10487;53.320;8.672;2023-06-22T01:43:11;101742.91;;;15.70;50.02
20656;BME280;10487;53.320;8.672;2023-06-22T01:46:14;101745.72;;;15.68;50.07
20656;BME280;10487;53.320;8.672;2023-06-22T01:49:16;101746.81;;;15.65;50.29
20656;BME280;10487;53.320;8.672;2023-06-22T01:52:18;101735.44;;;15.62;50.38
20656;BME280;10487;53.320;8.672;2023-06-22T01:55:22;101736.53;;;15.59;50.31
20656;BME280;10487;53.320;8.672;2023-06-22T01:58:27;101737.63;;;15.57;50.25
20656;BME280;10487;53.320;8.672;2023-06-22T02:01:36;101729.69;;;15.55;50.29
20656;BME280;10487;53.320;8.672;2023-06-22T02:04:48;101728.97;;;15.53;50.31
20656;BME280;10487;53.320;8.672;2023-06-22T02:08:02;101731.75;;;15.52;50.25
20656;BME280;10487;53.320;8.672;2023-06-22T02:11:09;101726.66;;;15.49;50.29
20656;BME280;10487;53.320;8.672;2023-06-22T02:14:13;101729.56;;;15.46;50.32
20656;BME280;10487;53.320;8.672;2023-06-22T02:17:17;101722.59;;;15.43;50.38
20656;BME280;10487;53.320;8.672;2023-06-22T02:20:19;101715.63;;;15.41;50.43
20656;BME280;10487;53.320;8.672;2023-06-22T02:23:21;101726.50;;;15.39;50.43
20656;BME280;10487;53.320;8.672;2023-06-22T02:26:24;101738.34;;;15.37;50.32
20656;BME280;10487;53.320;8.672;2023-06-22T02:29:26;101725.16;;;15.34;50.37
20656;BME280;10487;53.320;8.672;2023-06-22T02:32:28;101723.69;;;15.30;50.53
20656;BME280;10487;53.320;8.672;2023-06-22T02:35:30;101719.53;;;15.26;50.48
20656;BME280;10487;53.320;8.672;2023-06-22T02:38:37;101716.16;;;15.22;50.54
20656;BME280;10487;53.320;8.672;2023-06-22T02:41:38;101728.03;;;15.20;50.56
20656;BME280;10487;53.320;8.672;2023-06-22T02:44:40;101725.59;;;15.17;50.51
20656;BME280;10487;53.320;8.672;2023-06-22T02:47:42;101727.66;;;15.13;50.56
20656;BME280;10487;53.320;8.672;2023-06-22T02:50:44;101722.50;;;15.10;50.46
20656;BME280;10487;53.320;8.672;2023-06-22T02:53:45;101728.09;;;15.07;50.60
20656;BME280;10487;53.320;8.672;2023-06-22T02:56:47;101735.56;;;15.03;50.63
20656;BME280;10487;53.320;8.672;2023-06-22T02:59:49;101741.03;;;15.02;50.70
20656;BME280;10487;53.320;8.672;2023-06-22T03:02:51;101733.25;;;14.99;50.61
20656;BME280;10487;53.320;8.672;2023-06-22T03:05:52;101733.47;;;14.96;50.56
20656;BME280;10487;53.320;8.672;2023-06-22T03:08:59;101746.19;;;14.94;50.63
20656;BME280;10487;53.320;8.672;2023-06-22T03:12:01;101736.63;;;14.90;50.74
20656;BME280;10487;53.320;8.672;2023-06-22T03:15:08;101731.50;;;14.87;50.67
20656;BME280;10487;53.320;8.672;2023-06-22T03:18:12;101736.47;;;14.80;50.85
20656;BME280;10487;53.320;8.672;2023-06-22T03:21:14;101737.56;;;14.78;50.95
20656;BME280;10487;53.320;8.672;2023-06-22T03:24:16;101739.50;;;14.76;50.82
20656;BME280;10487;53.320;8.672;2023-06-22T03:27:18;101744.00;;;14.75;50.67
20656;BME280;10487;53.320;8.672;2023-06-22T03:30:20;101741.56;;;14.72;50.90
20656;BME280;10487;53.320;8.672;2023-06-22T03:33:21;101739.84;;;14.71;50.91
20656;BME280;10487;53.320;8.672;2023-06-22T03:36:23;101740.06;;;14.68;50.93
20656;BME280;10487;53.320;8.672;2023-06-22T03:39:25;101744.59;;;14.68;50.89
20656;BME280;10487;53.320;8.672;2023-06-22T03:42:26;101749.22;;;14.66;51.02
20656;BME280;10487;53.320;8.672;2023-06-22T03:45:28;101749.22;;;14.66;51.00
20656;BME280;10487;53.320;8.672;2023-06-22T03:48:30;101759.97;;;14.66;51.18
20656;BME280;10487;53.320;8.672;2023-06-22T03:51:32;101759.97;;;14.66;50.89
20656;BME280;10487;53.320;8.672;2023-06-22T03:54:34;101764.38;;;14.67;51.11
20656;BME280;10487;53.320;8.672;2023-06-22T03:57:35;101760.97;;;14.65;51.14
20656;BME280;10487;53.320;8.672;2023-06-22T04:00:37;101762.78;;;14.64;51.29
20656;BME280;10487;53.320;8.672;2023-06-22T04:03:39;101770.72;;;14.66;51.24
20656;BME280;10487;53.320;8.672;2023-06-22T04:06:41;101769.03;;;14.65;51.19
20656;BME280;10487;53.320;8.672;2023-06-22T04:09:42;101769.84;;;14.65;51.14
20656;BME280;10487;53.320;8.672;2023-06-22T04:12:44;101771.59;;;14.66;51.09
20656;BME280;10487;53.320;8.672;2023-06-22T04:15:46;101777.81;;;14.67;51.29
20656;BME280;10487;53.320;8.672;2023-06-22T04:18:47;101769.63;;;14.68;51.19
20656;BME280;10487;53.320;8.672;2023-06-22T04:21:49;101775.00;;;14.68;51.41
20656;BME280;10487;53.320;8.672;2023-06-22T04:24:51;101788.22;;;14.71;51.23
20656;BME280;10487;53.320;8.672;2023-06-22T04:27:54;101767.59;;;14.72;51.43
20656;BME280;10487;53.320;8.672;2023-06-22T04:30:55;101773.69;;;14.74;51.28
20656;BME280;10487;53.320;8.672;2023-06-22T04:34:05;101773.47;;;14.77;51.35
20656;BME280;10487;53.320;8.672;2023-06-22T04:37:07;101782.25;;;14.79;51.58
20656;BME280;10487;53.320;8.672;2023-06-22T04:40:09;101776.66;;;14.82;51.43
20656;BME280;10487;53.320;8.672;2023-06-22T04:43:11;101773.13;;;14.81;51.44
20656;BME280;10487;53.320;8.672;2023-06-22T04:46:12;101777.28;;;14.85;51.51
20656;BME280;10487;53.320;8.672;2023-06-22T04:49:14;101776.09;;;14.89;51.63
20656;BME280;10487;53.320;8.672;2023-06-22T04:52:16;101778.53;;;14.92;51.75
20656;BME280;10487;53.320;8.672;2023-06-22T04:55:19;101778.53;;;14.92;51.63
20656;BME280;10487;53.320;8.672;2023-06-22T04:58:21;101769.63;;;14.92;51.63
20656;BME280;10487;53.320;8.672;2023-06-22T05:01:23;101770.03;;;15.10;51.92
20656;BME280;10487;53.320;8.672;2023-06-22T05:04:26;101770.28;;;15.41;51.97
20656;BME280;10487;53.320;8.672;2023-06-22T05:07:29;101774.09;;;15.61;52.00
20656;BME280;10487;53.320;8.672;2023-06-22T05:10:30;101770.53;;;15.72;51.85
20656;BME280;10487;53.320;8.672;2023-06-22T05:13:32;101777.91;;;15.81;52.02
20656;BME280;10487;53.320;8.672;2023-06-22T05:16:34;101770.09;;;15.89;51.89
20656;BME280;10487;53.320;8.672;2023-06-22T05:19:36;101771.41;;;15.94;51.75
20656;BME280;10487;53.320;8.672;2023-06-22T05:22:38;101769.19;;;15.99;51.81
20656;BME280;10487;53.320;8.672;2023-06-22T05:25:40;101768.09;;;16.02;51.92
20656;BME280;10487;53.320;8.672;2023-06-22T05:28:41;101767.00;;;16.04;51.90
20656;BME280;10487;53.320;8.672;2023-06-22T05:31:47;101760.53;;;16.07;52.01
20656;BME280;10487;53.320;8.672;2023-06-22T05:34:48;101756.22;;;16.04;52.00
20656;BME280;10487;53.320;8.672;2023-06-22T05:37:50;101768.09;;;16.02;52.02
20656;BME280;10487;53.320;8.672;2023-06-22T05:40:52;101765.78;;;15.97;52.00
20656;BME280;10487;53.320;8.672;2023-06-22T05:43:54;101760.28;;;15.88;52.07
20656;BME280;10487;53.320;8.672;2023-06-22T05:46:55;101759.16;;;15.79;51.94
20656;BME280;10487;53.320;8.672;2023-06-22T05:49:57;101760.78;;;15.71;52.05
20656;BME280;10487;53.320;8.672;2023-06-22T05:52:59;101763.94;;;15.64;52.20
20656;BME280;10487;53.320;8.672;2023-06-22T05:56:01;101755.13;;;15.62;52.16
20656;BME280;10487;53.320;8.672;2023-06-22T05:59:04;101763.94;;;15.64;52.26
20656;BME280;10487;53.320;8.672;2023-06-22T06:02:05;101765.28;;;15.70;52.36
20656;BME280;10487;53.320;8.672;2023-06-22T06:05:07;101767.38;;;15.78;52.34
20656;BME280;10487;53.320;8.672;2023-06-22T06:08:09;101765.81;;;15.86;52.29
20656;BME280;10487;53.320;8.672;2023-06-22T06:11:12;101764.19;;;15.95;52.36
20656;BME280;10487;53.320;8.672;2023-06-22T06:14:14;101749.25;;;16.02;52.22
20656;BME280;10487;53.320;8.672;2023-06-22T06:17:16;101769.22;;;16.10;52.25
20656;BME280;10487;53.320;8.672;2023-06-22T06:20:25;101762.50;;;16.16;52.04
20656;BME280;10487;53.320;8.672;2023-06-22T06:23:27;101762.84;;;16.22;52.27
20656;BME280;10487;53.320;8.672;2023-06-22T06:26:29;101763.19;;;16.29;52.28
20656;BME280;10487;53.320;8.672;2023-06-22T06:29:34;101759.16;;;16.35;52.14
20656;BME280;10487;53.320;8.672;2023-06-22T06:32:35;101761.34;;;16.41;51.99
20656;BME280;10487;53.320;8.672;2023-06-22T06:35:37;101758.13;;;16.47;52.13
20656;BME280;10487;53.320;8.672;2023-06-22T06:38:39;101757.50;;;16.54;52.26
20656;BME280;10487;53.320;8.672;2023-06-22T06:41:40;101755.91;;;16.63;52.27
20656;BME280;10487;53.320;8.672;2023-06-22T06:44:42;101752.66;;;16.69;52.02
20656;BME280;10487;53.320;8.672;2023-06-22T06:47:44;101745.19;;;16.72;52.43
20656;BME280;10487;53.320;8.672;2023-06-22T06:50:46;101754.47;;;16.79;52.05
20656;BME280;10487;53.320;8.672;2023-06-22T06:53:48;101751.31;;;16.85;52.18
20656;BME280;10487;53.320;8.672;2023-06-22T06:56:49;101751.50;;;16.93;52.22
20656;BME280;10487;53.320;8.672;2023-06-22T06:59:51;101751.69;;;17.02;52.14
20656;BME280;10487;53.320;8.672;2023-06-22T07:02:53;101755.47;;;17.10;52.04
20656;BME280;10487;53.320;8.672;2023-06-22T07:05:54;101756.50;;;17.19;52.00
20656;BME280;10487;53.320;8.672;2023-06-22T07:08:56;101760.38;;;17.26;52.15
20656;BME280;10487;53.320;8.672;2023-06-22T07:11:58;101763.28;;;17.34;51.87
20656;BME280;10487;53.320;8.672;2023-06-22T07:15:07;101759.66;;;17.44;51.70
20656;BME280;10487;53.320;8.672;2023-06-22T07:18:09;101767.09;;;17.52;51.94
20656;BME280;10487;53.320;8.672;2023-06-22T07:21:11;101766.53;;;17.58;52.08
20656;BME280;10487;53.320;8.672;2023-06-22T07:24:13;101760.78;;;17.63;51.80
20656;BME280;10487;53.320;8.672;2023-06-22T07:27:15;101760.09;;;17.70;51.79
20656;BME280;10487;53.320;8.672;2023-06-22T07:30:20;101752.75;;;17.72;51.96
20656;BME280;10487;53.320;8.672;2023-06-22T07:33:21;101754.03;;;17.78;51.67
20656;BME280;10487;53.320;8.672;2023-06-22T07:36:23;101752.63;;;17.83;51.73
20656;BME280;10487;53.320;8.672;2023-06-22T07:39:25;101749.41;;;17.89;51.56
20656;BME280;10487;53.320;8.672;2023-06-22T07:42:27;101753.25;;;17.96;51.86
20656;BME280;10487;53.320;8.672;2023-06-22T07:45:34;101754.56;;;18.02;51.54
20656;BME280;10487;53.320;8.672;2023-06-22T07:48:37;101753.03;;;18.09;51.74
20656;BME280;10487;53.320;8.672;2023-06-22T07:51:39;101747.06;;;18.15;51.69
20656;BME280;10487;53.320;8.672;2023-06-22T07:54:41;101744.94;;;18.18;51.87
20656;BME280;10487;53.320;8.672;2023-06-22T07:57:42;101741.66;;;18.25;51.35
20656;BME280;10487;53.320;8.672;2023-06-22T08:00:44;101734.00;;;18.30;51.46
20656;BME280;10487;53.320;8.672;2023-06-22T08:03:49;101733.50;;;18.36;51.44
20656;BME280;10487;53.320;8.672;2023-06-22T08:06:51;101739.75;;;18.46;51.70
20656;BME280;10487;53.320;8.672;2023-06-22T08:09:53;101733.50;;;18.55;51.72
20656;BME280;10487;53.320;8.672;2023-06-22T08:12:54;101732.69;;;18.64;51.39
20656;BME280;10487;53.320;8.672;2023-06-22T08:15:56;101728.25;;;18.72;51.56
20656;BME280;10487;53.320;8.672;2023-06-22T08:18:58;101719.44;;;18.80;51.42
20656;BME280;10487;53.320;8.672;2023-06-22T08:21:59;101716.88;;;18.88;51.15
20656;BME280;10487;53.320;8.672;2023-06-22T08:25:02;101714.31;;;18.96;51.47
20656;BME280;10487;53.320;8.672;2023-06-22T08:28:05;101713.59;;;19.04;51.20
20656;BME280;10487;53.320;8.672;2023-06-22T08:31:07;101718.84;;;19.15;51.64
20656;BME280;10487;53.320;8.672;2023-06-22T08:34:08;101715.25;;;19.24;51.47
20656;BME280;10487;53.320;8.672;2023-06-22T08:37:10;101710.84;;;19.32;51.62
20656;BME280;10487;53.320;8.672;2023-06-22T08:40:12;101714.22;;;19.44;51.32
20656;BME280;10487;53.320;8.672;2023-06-22T08:43:14;101723.03;;;19.56;51.17
20656;BME280;10487;53.320;8.672;2023-06-22T08:46:16;101713.03;;;19.66;51.25
20656;BME280;10487;53.320;8.672;2023-06-22T08:49:21;101714.66;;;19.76;51.48
20656;BME280;10487;53.320;8.672;2023-06-22T08:52:23;101698.41;;;19.86;51.37
20656;BME280;10487;53.320;8.672;2023-06-22T08:55:25;101706.63;;;19.94;51.15
20656;BME280;10487;53.320;8.672;2023-06-22T08:58:27;101707.03;;;19.99;51.21
20656;BME280;10487;53.320;8.672;2023-06-22T09:01:29;101697.44;;;20.04;50.69
20656;BME280;10487;53.320;8.672;2023-06-22T09:04:31;101701.53;;;20.08;50.79
20656;BME280;10487;53.320;8.672;2023-06-22T09:07:36;101699.41;;;20.12;50.72
20656;BME280;10487;53.320;8.672;2023-06-22T09:10:38;101688.97;;;20.17;50.82
20656;BME280;10487;53.320;8.672;2023-06-22T09:13:39;101692.75;;;20.24;50.73
20656;BME280;10487;53.320;8.672;2023-06-22T09:16:41;101690.59;;;20.28;50.80
20656;BME280;10487;53.320;8.672;2023-06-22T09:19:43;101691.69;;;20.35;50.70
20656;BME280;10487;53.320;8.672;2023-06-22T09:22:44;101693.25;;;20.37;50.49
20656;BME280;10487;53.320;8.672;2023-06-22T09:25:46;101692.09;;;20.40;50.54
20656;BME280;10487;53.320;8.672;2023-06-22T09:28:49;101685.22;;;20.45;50.66
20656;BME280;10487;53.320;8.672;2023-06-22T09:31:51;101684.91;;;20.48;50.42
20656;BME280;10487;53.320;8.672;2023-06-22T09:34:55;101678.88;;;20.54;50.44
20656;BME280;10487;53.320;8.672;2023-06-22T09:37:56;101677.53;;;20.58;50.26
20656;BME280;10487;53.320;8.672;2023-06-22T09:40:58;101677.91;;;20.63;50.29
20656;BME280;10487;53.320;8.672;2023-06-22T09:43:59;101670.84;;;20.70;50.16
20656;BME280;10487;53.320;8.672;2023-06-22T09:47:01;101652.63;;;20.81;50.10
20656;BME280;10487;53.320;8.672;2023-06-22T09:50:03;101656.09;;;20.91;50.09
20656;BME280;10487;53.320;8.672;2023-06-22T09:53:05;101661.28;;;21.02;49.81
20656;BME280;10487;53.320;8.672;2023-06-22T09:56:07;101652.19;;;21.11;49.78
20656;BME280;10487;53.320;8.672;2023-06-22T09:59:12;101651.25;;;21.20;49.59
20656;BME280;10487;53.320;8.672;2023-06-22T10:02:19;101647.28;;;21.32;49.53
20656;BME280;10487;53.320;8.672;2023-06-22T10:05:21;101642.09;;;21.47;49.48
20656;BME280;10487;53.320;8.672;2023-06-22T10:08:23;101643.16;;;21.62;49.52
20656;BME280;10487;53.320;8.672;2023-06-22T10:11:25;101636.97;;;21.77;49.30
20656;BME280;10487;53.320;8.672;2023-06-22T10:14:30;101640.75;;;21.92;49.16
20656;BME280;10487;53.320;8.672;2023-06-22T10:17:32;101639.06;;;21.99;49.00
20656;BME280;10487;53.320;8.672;2023-06-22T10:20:34;101627.38;;;22.07;49.06
20656;BME280;10487;53.320;8.672;2023-06-22T10:23:36;101633.50;;;22.17;48.75
20656;BME280;10487;53.320;8.672;2023-06-22T10:26:37;101619.75;;;22.27;49.02
20656;BME280;10487;53.320;8.672;2023-06-22T10:29:39;101620.31;;;22.38;48.89
20656;BME280;10487;53.320;8.672;2023-06-22T10:32:41;101624.06;;;22.53;48.54
20656;BME280;10487;53.320;8.672;2023-06-22T10:35:44;101626.28;;;22.66;48.29
20656;BME280;10487;53.320;8.672;2023-06-22T10:38:46;101611.44;;;22.77;48.33
20656;BME280;10487;53.320;8.672;2023-06-22T10:41:49;101608.88;;;22.91;48.17
20656;BME280;10487;53.320;8.672;2023-06-22T10:44:50;101621.16;;;23.03;48.15
20656;BME280;10487;53.320;8.672;2023-06-22T10:47:52;101617.38;;;23.12;48.01
20656;BME280;10487;53.320;8.672;2023-06-22T10:50:54;101610.22;;;23.19;48.21
20656;BME280;10487;53.320;8.672;2023-06-22T10:53:55;101615.28;;;23.31;47.88
20656;BME280;10487;53.320;8.672;2023-06-22T10:56:57;101615.44;;;23.37;47.75
20656;BME280;10487;53.320;8.672;2023-06-22T10:59:59;101614.34;;;23.46;47.68
20656;BME280;10487;53.320;8.672;2023-06-22T11:03:00;101615.19;;;23.55;47.63
20656;BME280;10487;53.320;8.672;2023-06-22T11:06:02;101614.50;;;23.61;47.87
20656;BME280;10487;53.320;8.672;2023-06-22T11:09:04;101606.59;;;23.74;47.97
20656;BME280;10487;53.320;8.672;2023-06-22T11:12:24;101619.00;;;23.84;47.81
20656;BME280;10487;53.320;8.672;2023-06-22T11:15:26;101607.03;;;23.85;47.35
20656;BME280;10487;53.320;8.672;2023-06-22T11:18:27;101591.53;;;23.86;47.68
20656;BME280;10487;53.320;8.672;2023-06-22T11:21:29;101588.81;;;23.86;47.68
20656;BME280;10487;53.320;8.672;2023-06-22T11:24:30;101576.41;;;23.83;47.76
20656;BME280;10487;53.320;8.672;2023-06-22T11:27:32;101580.28;;;23.89;47.29
20656;BME280;10487;53.320;8.672;2023-06-22T11:30:34;101582.13;;;23.97;47.26
20656;BME280;10487;53.320;8.672;2023-06-22T11:33:36;101576.44;;;24.06;47.54
20656;BME280;10487;53.320;8.672;2023-06-22T11:36:38;101581.81;;;24.22;46.96
20656;BME280;10487;53.320;8.672;2023-06-22T11:39:39;101572.81;;;24.36;47.02
20656;BME280;10487;53.320;8.672;2023-06-22T11:42:48;101565.88;;;24.48;46.92
20656;BME280;10487;53.320;8.672;2023-06-22T11:45:50;101564.66;;;24.51;46.54
20656;BME280;10487;53.320;8.672;2023-06-22T11:48:51;101564.88;;;24.49;47.14
20656;BME280;10487;53.320;8.672;2023-06-22T11:51:53;101555.94;;;24.56;46.77
20656;BME280;10487;53.320;8.672;2023-06-22T11:54:55;101553.63;;;24.67;47.09
20656;BME280;10487;53.320;8.672;2023-06-22T11:57:57;101552.31;;;24.78;46.40
20656;BME280;10487;53.320;8.672;2023-06-22T12:01:01;101538.84;;;24.76;46.40
20656;BME280;10487;53.320;8.672;2023-06-22T12:04:03;101543.13;;;24.79;46.77
20656;BME280;10487;53.320;8.672;2023-06-22T12:07:07;101534.16;;;24.85;46.70
20656;BME280;10487;53.320;8.672;2023-06-22T12:10:09;101536.91;;;24.85;46.39
20656;BME280;10487;53.320;8.672;2023-06-22T12:13:10;101543.19;;;24.85;46.17
20656;BME280;10487;53.320;8.672;2023-06-22T12:16:12;101542.06;;;24.80;46.19
20656;BME280;10487;53.320;8.672;2023-06-22T12:19:14;101539.53;;;24.78;46.52
20656;BME280;10487;53.320;8.672;2023-06-22T12:22:15;101540.69;;;24.84;46.01
20656;BME280;10487;53.320;8.672;2023-06-22T12:25:17;101536.59;;;24.80;46.30
20656;BME280;10487;53.320;8.672;2023-06-22T12:28:19;101535.25;;;24.76;45.98
20656;BME280;10487;53.320;8.672;2023-06-22T12:31:20;101527.66;;;24.71;46.56
20656;BME280;10487;53.320;8.672;2023-06-22T12:34:22;101528.94;;;24.61;46.22
20656;BME280;10487;53.320;8.672;2023-06-22T12:37:24;101527.63;;;24.57;46.18
20656;BME280;10487;53.320;8.672;2023-06-22T12:40:25;101523.56;;;24.52;46.58
20656;BME280;10487;53.320;8.672;2023-06-22T12:43:27;101515.28;;;24.46;46.61
20656;BME280;10487;53.320;8.672;2023-06-22T12:46:29;101510.38;;;24.41;46.03
20656;BME280;10487;53.320;8.672;2023-06-22T12:49:37;101510.75;;;24.38;46.07
20656;BME280;10487;53.320;8.672;2023-06-22T12:52:39;101510.81;;;24.30;46.18
20656;BME280;10487;53.320;8.672;2023-06-22T12:55:42;101509.69;;;24.25;46.28
20656;BME280;10487;53.320;8.672;2023-06-22T12:58:43;101518.41;;;24.20;46.30
20656;BME280;10487;53.320;8.672;2023-06-22T13:01:45;101499.31;;;24.20;46.50
20656;BME280;10487;53.320;8.672;2023-06-22T13:04:47;101495.38;;;24.23;46.14
20656;BME280;10487;53.320;8.672;2023-06-22T13:07:48;101486.88;;;24.18;45.82
20656;BME280;10487;53.320;8.672;2023-06-22T13:10:50;101476.53;;;24.13;45.87
20656;BME280;10487;53.320;8.672;2023-06-22T13:13:52;101476.44;;;24.07;46.27
20656;BME280;10487;53.320;8.672;2023-06-22T13:16:53;101469.47;;;24.04;45.69
20656;BME280;10487;53.320;8.672;2023-06-22T13:19:55;101466.25;;;24.01;45.93
20656;BME280;10487;53.320;8.672;2023-06-22T13:22:56;101470.88;;;24.00;46.10
20656;BME280;10487;53.320;8.672;2023-06-22T13:25:58;101469.16;;;23.99;46.34
20656;BME280;10487;53.320;8.672;2023-06-22T13:29:02;101469.72;;;23.95;45.87
20656;BME280;10487;53.320;8.672;2023-06-22T13:32:04;101469.22;;;23.91;45.89
20656;BME280;10487;53.320;8.672;2023-06-22T13:35:06;101470.63;;;23.87;45.89
20656;BME280;10487;53.320;8.672;2023-06-22T13:38:08;101464.38;;;23.78;46.08
20656;BME280;10487;53.320;8.672;2023-06-22T13:41:10;101472.44;;;23.72;45.93
20656;BME280;10487;53.320;8.672;2023-06-22T13:44:12;101463.78;;;23.68;46.44
20656;BME280;10487;53.320;8.672;2023-06-22T13:47:13;101469.63;;;23.65;46.34
20656;BME280;10487;53.320;8.672;2023-06-22T13:50:15;101466.38;;;23.62;46.04
20656;BME280;10487;53.320;8.672;2023-06-22T13:53:17;101469.13;;;23.62;46.21
20656;BME280;10487;53.320;8.672;2023-06-22T13:56:18;101469.97;;;23.62;45.91
20656;BME280;10487;53.320;8.672;2023-06-22T13:59:20;101457.00;;;23.64;46.26
20656;BME280;10487;53.320;8.672;2023-06-22T14:02:22;101447.31;;;23.62;45.89
20656;BME280;10487;53.320;8.672;2023-06-22T14:05:24;101441.19;;;23.60;46.26
20656;BME280;10487;53.320;8.672;2023-06-22T14:08:25;101442.19;;;23.59;46.32
20656;BME280;10487;53.320;8.672;2023-06-22T14:11:42;101444.25;;;23.57;46.25
20656;BME280;10487;53.320;8.672;2023-06-22T14:14:44;101438.31;;;23.53;45.80
20656;BME280;10487;53.320;8.672;2023-06-22T14:17:45;101421.97;;;23.53;45.78
20656;BME280;10487;53.320;8.672;2023-06-22T14:20:48;101420.75;;;23.56;45.89
20656;BME280;10487;53.320;8.672;2023-06-22T14:23:49;101420.75;;;23.56;46.25
20656;BME280;10487;53.320;8.672;2023-06-22T14:26:51;101417.22;;;23.55;45.84
20656;BME280;10487;53.320;8.672;2023-06-22T14:29:53;101423.47;;;23.56;46.25
20656;BME280;10487;53.320;8.672;2023-06-22T14:32:54;101421.25;;;23.59;46.07
20656;BME280;10487;53.320;8.672;2023-06-22T14:35:56;101420.75;;;23.64;45.93
20656;BME280;10487;53.320;8.672;2023-06-22T14:38:57;101412.41;;;23.65;46.27
20656;BME280;10487;53.320;8.672;2023-06-22T14:41:59;101412.22;;;23.67;45.71
20656;BME280;10487;53.320;8.672;2023-06-22T14:45:02;101405.91;;;23.66;45.74
20656;BME280;10487;53.320;8.672;2023-06-22T14:48:04;101398.94;;;23.64;46.12
20656;BME280;10487;53.320;8.672;2023-06-22T14:51:05;101408.63;;;23.66;46.21
20656;BME280;10487;53.320;8.672;2023-06-22T14:54:07;101396.22;;;23.64;46.00
20656;BME280;10487;53.320;8.672;2023-06-22T14:57:09;101389.28;;;23.61;45.83
20656;BME280;10487;53.320;8.672;2023-06-22T15:00:11;101385.19;;;23.57;45.66
20656;BME280;10487;53.320;8.672;2023-06-22T15:03:12;101386.75;;;23.52;45.75
20656;BME280;10487;53.320;8.672;2023-06-22T15:06:19;101385.25;;;23.49;46.21
20656;BME280;10487;53.320;8.672;2023-06-22T15:09:20;101380.00;;;23.48;46.13
20656;BME280;10487;53.320;8.672;2023-06-22T15:12:22;101373.50;;;23.49;45.93
20656;BME280;10487;53.320;8.672;2023-06-22T15:15:24;101368.06;;;23.49;45.60
20656;BME280;10487;53.320;8.672;2023-06-22T15:18:25;101362.63;;;23.49;45.77
20656;BME280;10487;53.320;8.672;2023-06-22T15:21:28;101364.69;;;23.47;45.54
20656;BME280;10487;53.320;8.672;2023-06-22T15:24:30;101357.91;;;23.43;45.97
20656;BME280;10487;53.320;8.672;2023-06-22T15:27:32;101352.16;;;23.38;45.68
20656;BME280;10487;53.320;8.672;2023-06-22T15:30:34;101343.69;;;23.33;45.63
20656;BME280;10487;53.320;8.672;2023-06-22T15:33:35;101339.63;;;23.29;46.01
20656;BME280;10487;53.320;8.672;2023-06-22T15:36:38;101330.78;;;23.27;46.13
20656;BME280;10487;53.320;8.672;2023-06-22T15:39:40;101323.84;;;23.24;45.58
20656;BME280;10487;53.320;8.672;2023-06-22T15:42:42;101330.13;;;23.24;46.07
20656;BME280;10487;53.320;8.672;2023-06-22T15:45:43;101326.41;;;23.26;46.00
20656;BME280;10487;53.320;8.672;2023-06-22T15:48:45;101324.03;;;23.22;45.90
20656;BME280;10487;53.320;8.672;2023-06-22T15:51:50;101322.69;;;23.18;45.96
20656;BME280;10487;53.320;8.672;2023-06-22T15:54:51;101313.19;;;23.14;45.81